Graceful Lady — 00 — position and weather

sailwx.info

Track history (hours):
 
Tides and Currents Weather Stations Pressure Air Temp Water Temp Dewpoint Dewpoint Depression Visibility Wind Speed Wind Dir Waves Ship Positions

Graceful Lady

Last reported at 2016-May-03 21:32 UTC. Time now 2016-May-03 22:00 UTC.
Position N 30°59' E 121°21'.

Length 6 m.

Type: Pollution control. MMSI: 316014038.

Date/timePositionNaut miles runAvg speedWind from/ knotsBaromVisibWave heightAir tempDewpointWater temp
2016-May-03 21:32N 30°59' E 121°21'46128.3
2016-May-03 21:11N 30°47' E 122°14'5485.5
2016-May-03 20:32N 29°54' E 121°59'732610.4
2016-May-03 20:31N 30°59' E 121°21'43114.5
2016-May-03 20:08N 30°56' E 122°12'4375.8
2016-May-03 19:33N 30°59' E 121°21'39179.3
2016-May-03 19:21N 31°01' E 122°06'68645.1
2016-May-03 19:14N 29°54' E 121°59'391575.6
2016-May-03 18:33N 24°25' E 118°01'45211974.8
2016-May-03 18:31N 31°06' E 121°58'32483.9
2016-May-03 18:27N 30°59' E 121°21'65198.5
2016-May-03 18:08N 31°58' E 120°50'477835.1
2016-May-03 17:33N 24°24' E 118°06'43167467.8
2016-May-03 17:33N 30°59' E 121°21'65632.9
2016-May-03 17:27N 31°58' E 120°50'64319.5
2016-May-03 17:15N 31°15' E 121°46'7 9.8
2016-May-03 16:33N 31°20' E 121°40'2731844.2
2016-May-03 16:33N 30°59' E 121°21'43242020.5
2016-May-03 16:33N 24°21' E 118°11'432437.3
2016-May-03 15:33N 30°59' E 121°21'2719189.8
2016-May-03 15:33N 31°24' E 121°31'935162.2
2016-May-03 15:32N 29°54' E 121°59'38733145.3
2016-May-03 15:32N 24°21' E 118°18'430443.6
2016-May-03 14:33N 30°59' E 121°21'0 0.0
2016-May-03 13:33N 30°59' E 121°21'498405.3
2016-May-03 13:33N 30°36' E 122°12'4949.1
2016-May-03 12:33N 30°59' E 121°21'734279.3
2016-May-03 12:32N 29°54' E 121°59'7373.9
2016-May-03 11:33N 30°59' E 121°21'54298.9
2016-May-03 11:22N 30°31' E 122°16'5466.6
2016-May-03 10:33N 30°59' E 121°21'40311425.8
2016-May-03 10:31N 24°39' E 118°48'403416.7
2016-May-03 09:33N 30°59' E 121°21'39821085.0
2016-May-03 09:32N 24°43' E 118°52'4056446.0
2016-May-03 09:28N 31°03' E 121°28'742040.4
2016-May-03 09:26N 29°54' E 121°59'39161.6
2016-May-03 09:12N 30°30' E 122°15'5484.5
2016-May-03 08:33N 30°59' E 121°21'4438.2
2016-May-03 08:33N 30°60' E 121°25'39629058.4
2016-May-03 08:32N 24°47' E 118°56'3923862.7
2016-May-03 08:26N 30°58' E 121°19'2 2.6
2016-May-03 07:34N 30°59' E 121°21'38938863.1
2016-May-03 07:33N 24°51' E 118°60'38718841.8
2016-May-03 07:32N 30°58' E 121°18'73383.5
2016-May-03 07:20N 29°54' E 121°59'7393.0
2016-May-03 06:33N 30°59' E 121°21'3834121.1
2016-May-03 06:28N 24°55' E 119°04'384422.1
2016-May-03 05:33N 30°59' E 121°21'3788560.8
2016-May-03 05:31N 24°60' E 119°08'378394.8
2016-May-03 04:33N 30°59' E 121°21'0 0.0
2016-May-03 03:33N 30°59' E 121°21'0 0.0
2016-May-03 02:33N 30°59' E 121°21'3602458.3
2016-May-03 02:24N 25°14' E 119°25'360423.2
2016-May-03 01:33N 30°59' E 121°21'2 7.8
2016-May-03 01:16N 30°58' E 121°19'2 3.2
2016-May-03 00:33N 30°59' E 121°21'0 0.0
2016-May-02 23:33N 30°59' E 121°21'73187.0
2016-May-02 23:10N 32°01' E 120°38'72668.7
2016-May-02 23:03N 30°58' E 121°19'0 0.0
2016-May-02 22:33N 30°58' E 121°19'22772.2
2016-May-02 22:33N 30°59' E 121°21'0 0.0
2016-May-02 21:33N 30°59' E 121°21'328655.8
2016-May-02 21:03N 25°44' E 119°39'328659.1
2016-May-02 20:33N 30°59' E 121°21'6381640.7
2016-May-02 20:10N 22°58' E 113°32'6381048.5
2016-May-02 19:34N 30°59' E 121°21'73130641.6
2016-May-02 19:33N 32°01' E 120°38'65921559.7
2016-May-02 19:32N 23°03' E 113°30'6136815.4
2016-May-02 19:26N 29°54' E 121°59'87451.8
2016-May-02 19:15N 31°20' E 121°41'2738.9
2016-May-02 18:33N 30°59' E 121°21'635190357.4
2016-May-02 18:33N 23°06' E 113°27'659237404.7
2016-May-02 18:33N 31°23' E 121°34'2626.6
2016-May-02 17:33N 30°59' E 121°21'0 0.0
2016-May-02 16:33N 30°59' E 121°21'2 5.3
2016-May-02 16:07N 30°58' E 121°19'0 0.4
2016-May-02 15:33N 30°58' E 121°19'2567.1
2016-May-02 15:33N 30°59' E 121°21'6354965.8
2016-May-02 15:25N 23°06' E 113°27'637735.0
2016-May-02 14:33N 30°60' E 121°24'6372292484.0
2016-May-02 14:33N 23°06' E 113°27'635253809.8
2016-May-02 14:33N 30°59' E 121°21'65543.6
2016-May-02 14:26N 31°58' E 120°50'6574.5
2016-May-02 13:34N 30°59' E 121°21'635571072.1
2016-May-02 13:33N 23°06' E 113°27'641577161.1
2016-May-02 13:33N 31°02' E 121°29'65135.1
2016-May-02 13:04N 31°58' E 120°50'60115.8
2016-May-02 12:34N 31°08' E 121°28'64547376.9
2016-May-02 12:33N 23°06' E 113°27'635642.6
2016-May-02 11:33N 30°59' E 121°21'635571874.6
2016-May-02 11:33N 23°05' E 113°26'65061608.2
2016-May-02 11:33N 31°12' E 121°30'1515.6
2016-May-02 10:33N 30°59' E 121°21'635762491.5
2016-May-02 10:33N 23°05' E 113°26'65443571.0
2016-May-02 10:32N 31°15' E 121°32'8421702.9
2016-May-02 10:32N 29°54' E 121°59'152622.0
2016-May-02 10:18N 31°57' E 120°14'77105.0
2016-May-02 09:33N 31°19' E 121°33'2316350.4
2016-May-02 09:33N 30°59' E 121°21'635254163.8
2016-May-02 09:33N 23°05' E 113°26'61544257.3
2016-May-02 09:32N 29°54' E 121°59'151670.1
2016-May-02 09:19N 31°58' E 120°18'27242.2
2016-May-02 09:12N 31°58' E 120°50'65101.7
2016-May-02 08:34N 30°59' E 121°21'246174.8
2016-May-02 08:33N 31°22' E 121°30'656118164.1
2016-May-02 08:33N 23°06' E 113°26'635639.6
2016-May-02 07:33N 30°59' E 121°21'272288.8
2016-May-02 07:33N 31°24' E 121°31'65918832.4
2016-May-02 07:31N 23°06' E 113°26'6148503.0
2016-May-02 07:26N 29°54' E 121°59'7282.4
2016-May-02 06:33N 30°59' E 121°21'3013399.4
2016-May-02 06:33N 31°28' E 121°26'65923046.5
2016-May-02 06:32N 23°02' E 113°31'659679.9
2016-May-02 05:33N 31°32' E 121°20'33119424.5
2016-May-02 05:33N 30°59' E 121°21'635152478.8
2016-May-02 05:33N 23°02' E 113°31'61439473.2
2016-May-02 05:32N 29°54' E 121°59'109111.2
2016-May-02 04:33N 31°37' E 121°16'3822941.4
2016-May-02 04:33N 30°59' E 121°21'651405.9
2016-May-02 04:30N 31°58' E 120°50'6635293.6
2016-May-02 04:23N 23°02' E 113°31'635771.1
2016-May-02 03:33N 30°59' E 121°21'63510737.9
2016-May-02 03:30N 23°02' E 113°31'661475598.2
2016-May-02 03:30N 31°41' E 121°10'48133.1
2016-May-02 03:08N 31°58' E 120°18'25318.6
2016-May-02 03:04N 32°01' E 120°47'69136.8
2016-May-02 02:34N 30°59' E 121°21'63531331.7
2016-May-02 02:32N 23°02' E 113°31'6399506.1
2016-May-02 02:28N 31°00' E 121°26'47500.4
2016-May-02 02:23N 31°44' E 121°05'1923.5
2016-May-02 01:33N 31°58' E 120°50'6521360.6
2016-May-02 01:33N 30°59' E 121°21'7102.3
2016-May-02 01:29N 31°03' E 121°29'64337322.0
2016-May-02 01:28N 23°01' E 113°31'66098994.9
2016-May-02 01:27N 31°44' E 121°04'47159.6
2016-May-02 01:09N 30°58' E 121°18'3 5.2
2016-May-02 00:33N 30°59' E 121°21'055.3
2016-May-02 00:33N 30°59' E 121°21'735438.2
2016-May-02 00:32N 29°54' E 121°59'1204181.4
2016-May-02 00:31N 31°44' E 121°04'660197989.8
2016-May-02 00:30N 23°01' E 113°31'636668.7
2016-May-01 23:33N 30°59' E 121°21'42967.7
2016-May-01 23:33N 31°00' E 121°26'6396749.7
2016-May-01 23:28N 23°01' E 113°31'66015133.2
2016-May-01 23:25N 31°44' E 121°04'227.1
2016-May-01 23:20N 31°46' E 121°04'5064.2
2016-May-01 22:33N 30°59' E 121°21'724924.0
2016-May-01 22:32N 29°54' E 121°59'61473711.3
2016-May-01 22:32N 23°01' E 113°31'643289218.4
2016-May-01 22:32N 31°03' E 121°29'2278884.0
2016-May-01 22:32N 31°23' E 121°37'314358.6
2016-May-01 22:31N 31°43' E 121°08'353.8
2016-May-01 22:28N 31°44' E 121°04'4752.7
2016-May-01 21:34N 30°59' E 121°21'277005.3
2016-May-01 21:33N 31°20' E 121°42'311611.3
2016-May-01 21:32N 31°39' E 121°13'66211394.3
2016-May-01 21:29N 23°01' E 113°31'636688.8
2016-May-01 20:33N 30°59' E 121°21'271196.2
2016-May-01 20:32N 31°16' E 121°46'313759.9
2016-May-01 20:31N 31°36' E 121°18'66117897.8
2016-May-01 20:29N 23°01' E 113°31'66026401.1
2016-May-01 20:28N 31°44' E 121°04'19228.1
2016-May-01 20:23N 31°58' E 120°50'6579.4
2016-May-01 19:33N 30°59' E 121°21'348660.1
2016-May-01 19:33N 31°33' E 121°21'6618200.1
2016-May-01 19:28N 23°01' E 113°31'6605023.4
2016-May-01 19:21N 31°44' E 121°04'1201138.9
2016-May-01 19:14N 29°54' E 121°59'100146.3
2016-May-01 18:33N 31°30' E 121°26'32113405.0
2016-May-01 18:33N 30°59' E 121°21'725018.7
2016-May-01 18:32N 29°54' E 121°59'61463181.1
2016-May-01 18:32N 23°01' E 113°31'66032549.3
2016-May-01 18:30N 31°44' E 121°04'660693.0
2016-May-01 17:33N 23°01' E 113°32'6352286894.9
2016-May-01 17:33N 30°59' E 121°21'296489.9
2016-May-01 17:33N 31°27' E 121°29'967227.5
2016-May-01 17:32N 29°54' E 121°59'120904.5
2016-May-01 17:24N 31°44' E 121°04'3136.0
2016-May-01 16:33N 31°23' E 121°30'255978.0
2016-May-01 16:33N 30°59' E 121°21'63514947.0
2016-May-01 16:31N 23°01' E 113°32'6604472.1
2016-May-01 16:22N 31°44' E 121°04'3644.4
2016-May-01 15:33N 31°18' E 121°33'229861.8
2016-May-01 15:33N 30°59' E 121°21'63512920.3
2016-May-01 15:30N 23°01' E 113°32'6631544.2
2016-May-01 15:05N 31°58' E 120°50'6631278.7
2016-May-01 14:33N 23°01' E 113°32'635285864.0
2016-May-01 14:33N 30°59' E 121°21'178958.7
2016-May-01 14:33N 31°15' E 121°30'865626.4
2016-May-01 14:32N 29°54' E 122°05'7576.2
2016-May-01 13:33N 30°59' E 121°21'635762303.6
2016-May-01 13:33N 23°01' E 113°32'6178881.2
2016-May-01 13:29N 29°50' E 122°07'7985.1
2016-May-01 12:34N 30°59' E 121°21'63543985.6
2016-May-01 12:33N 23°02' E 113°31'6445696.6
2016-May-01 12:26N 31°06' E 121°28'9 9.9
2016-May-01 11:33N 30°59' E 121°21'63542356.2
2016-May-01 11:32N 23°02' E 113°31'637649.6
2016-May-01 10:34N 30°59' E 121°24'2992.9
2016-May-01 10:33N 30°59' E 121°21'6355689.6
2016-May-01 10:27N 23°02' E 113°31'64744805.0
2016-May-01 10:26N 30°44' E 121°59'99508.5
2016-May-01 10:14N 32°01' E 120°47'69101.2
2016-May-01 09:33N 30°59' E 121°21'63534654.6
2016-May-01 09:32N 23°02' E 113°31'642121681.8
2016-May-01 09:32N 30°41' E 121°54'3434.2
2016-May-01 08:33N 30°59' E 121°21'63526908.5
2016-May-01 08:32N 23°02' E 113°31'6103896.6
2016-May-01 08:22N 29°46' E 122°01'8097.6
2016-May-01 07:33N 30°59' E 121°21'79990.4
2016-May-01 07:28N 29°50' E 122°06'159849.3
2016-May-01 07:17N 31°56' E 120°12'82112.8
2016-May-01 06:33N 30°59' E 121°21'6352287414.7
2016-May-01 06:33N 23°02' E 113°31'635634.3
2016-May-01 05:33N 30°59' E 121°21'63514950.5
2016-May-01 05:31N 23°02' E 113°31'635665.3
2016-May-01 04:33N 30°59' E 121°21'0 0.0
2016-May-01 03:33N 30°59' E 121°21'6352253.6
2016-May-01 03:17N 23°02' E 113°31'6298293.0
2016-May-01 03:12N 30°57' E 121°13'811.9
2016-May-01 02:33N 30°59' E 121°21'4173.3
2016-May-01 02:32N 30°58' E 121°17'6321670.4
2016-May-01 02:09N 23°02' E 113°31'6351067.9
2016-May-01 01:34N 30°59' E 121°21'121.6
2016-May-01 01:30N 30°59' E 121°23'1 1.5
2016-May-01 00:33N 30°59' E 121°21'796.4
2016-May-01 00:29N 31°02' E 121°29'852901.2
2016-May-01 00:27N 29°41' E 122°02'1504711.1
2016-May-01 00:25N 31°58' E 120°50'6575.3
2016-Apr-30 23:33N 30°59' E 121°21'8196757.5
2016-Apr-30 23:33N 29°47' E 122°04'61341664.7
2016-Apr-30 23:32N 23°02' E 113°31'66314127.6
2016-Apr-30 23:29N 31°58' E 120°50'6569.8
2016-Apr-30 22:33N 30°59' E 121°21'7721344.7
2016-Apr-30 22:33N 29°53' E 122°09'62072013.5
2016-Apr-30 22:33N 23°02' E 113°31'6514883.4
2016-Apr-30 22:25N 31°13' E 121°30'651761.3
2016-Apr-30 21:33N 23°02' E 113°31'638765243.0
2016-Apr-30 21:33N 30°60' E 121°25'70981.1
2016-Apr-30 21:29N 29°58' E 122°03'8894.8
2016-Apr-30 20:33N 31°21' E 121°30'226190.2
2016-Apr-30 20:33N 30°60' E 121°25'63862046.7
2016-Apr-30 20:33N 23°02' E 113°31'638646.7
2016-Apr-30 19:33N 30°60' E 121°25'6381378.0
2016-Apr-30 19:06N 23°02' E 113°31'6381184.6
2016-Apr-30 18:33N 30°60' E 121°25'6382295668.2
2016-Apr-30 18:33N 23°02' E 113°31'0 0.0
2016-Apr-30 17:33N 23°02' E 113°31'638114784.2
2016-Apr-30 17:33N 30°60' E 121°25'638643.1
2016-Apr-30 16:33N 23°02' E 113°31'6381147906.1
2016-Apr-30 16:33N 30°60' E 121°25'0 0.0
2016-Apr-30 15:34N 30°60' E 121°25'638120825.5
2016-Apr-30 15:33N 23°02' E 113°31'638640.4
2016-Apr-30 14:33N 30°60' E 121°25'72841.0
2016-Apr-30 14:28N 29°54' E 121°59'7277.5
2016-Apr-30 13:33N 30°60' E 121°25'2677.4
2016-Apr-30 13:13N 31°22' E 121°38'66252988.8
2016-Apr-30 13:12N 23°02' E 113°31'638986.1
2016-Apr-30 12:33N 30°60' E 121°25'638208789.3
2016-Apr-30 12:33N 23°02' E 113°31'6141618.4
2016-Apr-30 12:10N 29°54' E 121°59'72113.3
2016-Apr-30 11:32N 31°01' E 121°29'64260801.1
2016-Apr-30 11:31N 23°02' E 113°31'0 0.0
2016-Apr-30 10:33N 23°02' E 113°31'6602810.7
2016-Apr-30 10:19N 32°01' E 120°38'685455.8
2016-Apr-30 10:18N 31°08' E 121°28'646854.7
2016-Apr-30 09:33N 23°02' E 113°31'6378245.2
2016-Apr-30 09:28N 30°35' E 121°51'7 7.4
2016-Apr-30 08:33N 30°41' E 121°55'643210443.0
2016-Apr-30 08:33N 23°02' E 113°31'65211115.8
2016-Apr-30 08:30N 31°15' E 121°29'652684.2
2016-Apr-30 07:33N 23°02' E 113°31'6569077.6
2016-Apr-30 07:28N 31°17' E 121°34'656678.6
2016-Apr-30 06:30N 23°02' E 113°31'65820066.5
2016-Apr-30 06:28N 31°20' E 121°33'3 3.0
2016-Apr-30 05:31N 31°21' E 121°30'65723421.7
2016-Apr-30 05:29N 23°02' E 113°31'659706.0
2016-Apr-30 04:33N 31°24' E 121°31'65960822.1
2016-Apr-30 04:32N 23°02' E 113°31'6622887.3
2016-Apr-30 04:19N 31°21' E 121°38'1112.6
2016-Apr-30 03:28N 31°27' E 121°28'63324.2
2016-Apr-30 03:16N 30°37' E 122°13'63373.4
2016-Apr-30 03:06N 31°27' E 121°28'6601206.5
2016-Apr-30 02:33N 23°02' E 113°31'659237348.4
2016-Apr-30 02:33N 31°30' E 121°23'166413.8
2016-Apr-30 02:33N 31°21' E 121°39'161534.4
2016-Apr-30 02:32N 31°30' E 121°23'724152.9
2016-Apr-30 02:31N 30°33' E 122°14'649669.0
2016-Apr-30 01:33N 23°01' E 113°31'659296715.5
2016-Apr-30 01:33N 31°31' E 121°23'71322.8
2016-Apr-30 01:33N 31°36' E 121°17'660664.2
2016-Apr-30 00:33N 23°01' E 113°31'659593439.3
2016-Apr-30 00:33N 31°31' E 121°23'75592.0
2016-Apr-30 00:25N 30°31' E 122°16'649744.5
2016-Apr-29 23:33N 23°02' E 113°31'6602374991.0
2016-Apr-29 23:33N 31°31' E 121°23'0 0.1
2016-Apr-29 22:32N 31°31' E 121°22'66015321.6
2016-Apr-29 22:29N 23°02' E 113°31'660710.8
2016-Apr-29 21:33N 31°31' E 121°22'757988.5
2016-Apr-29 21:33N 30°31' E 122°15'6492709.5
2016-Apr-29 21:19N 23°02' E 113°31'660878.3
2016-Apr-29 20:33N 31°31' E 121°22'66013493.2
2016-Apr-29 20:31N 23°02' E 113°31'6491809.1
2016-Apr-29 20:09N 30°31' E 122°15'75125.8
2016-Apr-29 19:33N 31°31' E 121°22'7512336.8
2016-Apr-29 19:33N 30°31' E 122°15'64980535.6
2016-Apr-29 19:32N 23°02' E 113°31'660668.2
2016-Apr-29 18:33N 31°31' E 121°23'75882.5
2016-Apr-29 18:28N 30°31' E 122°15'649233534.9
2016-Apr-29 18:28N 23°02' E 113°31'660730.9
2016-Apr-29 17:34N 31°31' E 121°23'66021395.3
2016-Apr-29 17:32N 23°02' E 113°31'660678.1
2016-Apr-29 16:33N 31°31' E 121°23'66040945.9
2016-Apr-29 16:32N 23°02' E 113°31'660672.4
2016-Apr-29 15:33N 31°31' E 121°23'66020832.4
2016-Apr-29 15:32N 23°02' E 113°31'6494845.3
2016-Apr-29 15:24N 30°31' E 122°15'114136.5
2016-Apr-29 14:33N 31°58' E 120°50'394138.4
2016-Apr-29 14:33N 31°31' E 121°23'751807.5
2016-Apr-29 14:30N 30°30' E 122°15'64922896.7
2016-Apr-29 14:29N 23°02' E 113°31'649699.7
2016-Apr-29 13:33N 30°30' E 122°15'7519374.9
2016-Apr-29 13:33N 31°31' E 121°23'66016046.6
2016-Apr-29 13:30N 23°02' E 113°31'660694.6
2016-Apr-29 12:33N 31°31' E 121°23'660124994.6
2016-Apr-29 12:33N 23°02' E 113°31'660663.0
2016-Apr-29 11:33N 31°31' E 121°23'66021205.2
2016-Apr-29 11:31N 23°02' E 113°31'6631579.1
2016-Apr-29 11:06N 31°58' E 120°50'3971.1
2016-Apr-29 10:33N 31°31' E 121°22'737262.9
2016-Apr-29 10:33N 30°33' E 122°14'65010629.3
2016-Apr-29 10:29N 23°02' E 113°31'61450241.5
2016-Apr-29 10:28N 29°54' E 121°59'138579.7
2016-Apr-29 10:14N 31°58' E 120°50'663970.1
2016-Apr-29 09:33N 23°02' E 113°31'66057920.7
2016-Apr-29 09:32N 31°31' E 121°22'65204.3
2016-Apr-29 09:13N 30°42' E 122°14'6598.2
2016-Apr-29 08:33N 31°31' E 121°22'66037105.2
2016-Apr-29 08:32N 23°02' E 113°31'660673.3
2016-Apr-29 07:33N 31°31' E 121°23'660182665.9
2016-Apr-29 07:33N 23°02' E 113°31'0 0.0
2016-Apr-29 06:34N 23°02' E 113°31'660118739.8
2016-Apr-29 06:33N 31°31' E 121°23'0 0.0
2016-Apr-29 05:33N 31°31' E 121°23'66016155.1
2016-Apr-29 05:31N 23°02' E 113°31'660687.5
2016-Apr-29 04:33N 31°31' E 121°23'6605835.0
2016-Apr-29 04:27N 23°02' E 113°31'660741.0
2016-Apr-29 03:33N 31°31' E 121°23'0 0.0
2016-Apr-29 02:33N 31°31' E 121°23'6602513.1
2016-Apr-29 02:17N 23°02' E 113°31'660892.1
2016-Apr-29 01:33N 31°31' E 121°23'66014843.1
2016-Apr-29 01:30N 23°02' E 113°31'660695.4
2016-Apr-29 00:33N 31°31' E 121°23'66034418.8
2016-Apr-29 00:32N 23°02' E 113°31'6641640.5
2016-Apr-29 00:08N 31°58' E 120°51'3866.3
2016-Apr-28 23:34N 31°31' E 121°23'66021395.5
2016-Apr-28 23:32N 23°02' E 113°31'0 0.0
2016-Apr-28 22:33N 23°02' E 113°31'660131949.5
2016-Apr-28 22:33N 31°31' E 121°23'660660.3
2016-Apr-28 21:33N 23°02' E 113°31'660658.0
2016-Apr-28 20:33N 31°31' E 121°22'66015832.2
2016-Apr-28 20:30N 23°02' E 113°31'660694.2
2016-Apr-28 19:33N 31°31' E 121°22'6605654.4
2016-Apr-28 19:26N 23°02' E 113°31'660748.0
2016-Apr-28 18:34N 31°31' E 121°22'107317.2
2016-Apr-28 18:33N 31°23' E 121°31'659338846.5
2016-Apr-28 18:33N 23°02' E 113°31'662663.6
2016-Apr-28 17:33N 31°21' E 121°40'184509.9
2016-Apr-28 17:33N 31°31' E 121°23'66074213.9
2016-Apr-28 17:33N 23°02' E 113°31'0 0.0
2016-Apr-28 16:33N 23°02' E 113°31'66059372.4
2016-Apr-28 16:33N 31°31' E 121°23'0 0.0
2016-Apr-28 15:33N 31°31' E 121°23'66012116.9
2016-Apr-28 15:30N 23°02' E 113°31'660693.2
2016-Apr-28 14:33N 31°31' E 121°23'66020832.3
2016-Apr-28 14:31N 23°02' E 113°31'660682.8
2016-Apr-28 13:33N 31°31' E 121°23'6609064.5
2016-Apr-28 13:29N 23°02' E 113°31'660707.7
2016-Apr-28 12:33N 31°31' E 121°23'6603818.2
2016-Apr-28 12:22N 23°02' E 113°31'660806.4
2016-Apr-28 11:33N 31°31' E 121°23'660169637.9
2016-Apr-28 11:33N 23°02' E 113°31'660654.6
2016-Apr-28 10:33N 31°31' E 121°23'66020126.2
2016-Apr-28 10:31N 23°02' E 113°31'660692.9
2016-Apr-28 09:33N 31°31' E 121°22'66013119.9
2016-Apr-28 09:30N 23°02' E 113°31'6103921.8
2016-Apr-28 09:21N 29°57' E 121°50'97121.3
2016-Apr-28 08:33N 31°31' E 121°22'6607421.3
2016-Apr-28 08:28N 23°02' E 113°31'660725.6
2016-Apr-28 07:33N 31°31' E 121°22'66027939.2
2016-Apr-28 07:32N 23°02' E 113°31'6452136.7
2016-Apr-28 07:14N 31°10' E 121°24'12411.1
2016-Apr-28 07:12N 31°22' E 121°28'6561018.5
2016-Apr-28 06:33N 23°02' E 113°31'66064177.1
2016-Apr-28 06:33N 31°31' E 121°22'971047.6
2016-Apr-28 06:27N 29°57' E 121°50'97108.1
2016-Apr-28 05:33N 31°31' E 121°23'66037106.2
2016-Apr-28 05:32N 23°02' E 113°31'6562709.7
2016-Apr-28 05:18N 31°22' E 121°28'1013.8
2016-Apr-28 04:34N 31°31' E 121°23'66071963.5
2016-Apr-28 04:33N 23°02' E 113°31'660665.0
2016-Apr-28 03:33N 31°31' E 121°23'26178.0
2016-Apr-28 03:25N 31°05' E 121°28'6441947.3
2016-Apr-28 03:05N 23°01' E 113°32'65719876.6
2016-Apr-28 03:03N 31°21' E 121°31'2142.5
2016-Apr-28 02:33N 31°01' E 121°27'302335.6
2016-Apr-28 02:33N 31°31' E 121°23'0 0.0
2016-Apr-28 01:33N 31°31' E 121°23'323300.2
2016-Apr-28 01:32N 30°59' E 121°19'6342404.2
2016-Apr-28 01:17N 23°01' E 113°32'0 0.0
2016-Apr-28 00:33N 23°01' E 113°32'659131891.5
2016-Apr-28 00:33N 31°31' E 121°23'0 0.0
2016-Apr-27 23:33N 31°31' E 121°23'0 0.0
2016-Apr-27 22:32N 31°31' E 121°23'6605473.5
2016-Apr-27 22:25N 23°01' E 113°31'660765.1
2016-Apr-27 21:33N 31°31' E 121°23'53942427459.2
2016-Apr-27 21:33N 49°18' W 122°54'6191318415.3
2016-Apr-27 21:32N 23°01' E 113°31'660669.3
2016-Apr-27 20:33N 31°31' E 121°22'66022408.7
2016-Apr-27 20:31N 23°01' E 113°31'0 0.0
2016-Apr-27 19:33N 23°01' E 113°31'66087974.2
2016-Apr-27 19:33N 31°31' E 121°22'1138.5
2016-Apr-27 19:16N 31°24' E 121°32'1114.9
2016-Apr-27 18:33N 31°31' E 121°22'66024487.5
2016-Apr-27 18:32N 23°01' E 113°31'66291686.3
2016-Apr-27 18:31N 31°22' E 121°38'1616.8
2016-Apr-27 17:33N 31°31' E 121°22'386173776.1
2016-Apr-27 17:33N 37°56' E 120°43'96920044.9
2016-Apr-27 17:30N 23°01' E 113°31'660693.3
2016-Apr-27 16:33N 31°31' E 121°23'66041672.6
2016-Apr-27 16:32N 23°01' E 113°31'951921498.8
2016-Apr-27 16:06N 41°13' W 072°34'938917253.7
2016-Apr-27 15:33N 31°31' E 121°23'66037703.8
2016-Apr-27 15:32N 23°01' E 113°31'6142544.3
2016-Apr-27 15:18N 29°54' E 121°59'102138.6
2016-Apr-27 14:34N 31°31' E 121°23'66018413.6
2016-Apr-27 14:31N 23°01' E 113°31'660682.2
2016-Apr-27 13:33N 31°31' E 121°23'66040954.4
2016-Apr-27 13:32N 23°01' E 113°31'660669.7
2016-Apr-27 12:33N 31°31' E 121°23'66028616.1
2016-Apr-27 12:32N 23°01' E 113°32'660675.1
2016-Apr-27 11:33N 31°31' E 121°23'0 0.0
2016-Apr-27 10:33N 31°31' E 121°23'0 0.0
2016-Apr-27 09:33N 31°31' E 121°23'0 0.1
2016-Apr-27 08:33N 31°31' E 121°22'40506.0
2016-Apr-27 08:28N 31°59' E 120°49'4043.3
2016-Apr-27 07:32N 31°31' E 121°22'74919.7
2016-Apr-27 07:27N 30°32' E 122°14'7482.2
2016-Apr-27 06:33N 31°31' E 121°22'75470.2
2016-Apr-27 06:24N 30°31' E 122°16'7589.4
2016-Apr-27 05:33N 31°31' E 121°23'757342.3
2016-Apr-27 05:33N 30°30' E 122°15'1165015.3
2016-Apr-27 05:31N 31°59' E 120°49'4041.8
2016-Apr-27 04:33N 31°31' E 121°23'752120.7
2016-Apr-27 04:31N 30°30' E 122°15'7578.2
2016-Apr-27 03:33N 31°31' E 121°23'751085.4
2016-Apr-27 03:29N 30°30' E 122°15'123293.7
2016-Apr-27 03:04N 32°01' E 120°38'91096.0
2016-Apr-27 03:04N 31°59' E 120°49'4080.7
2016-Apr-27 02:34N 31°31' E 121°23'751728.4
2016-Apr-27 02:31N 30°30' E 122°15'7679.5
2016-Apr-27 01:33N 31°31' E 121°21'761333.6
2016-Apr-27 01:30N 30°30' E 122°15'8184.8
2016-Apr-27 00:32N 31°35' E 121°18'813759.2
2016-Apr-27 00:31N 30°30' E 122°15'123763.9
2016-Apr-27 00:21N 32°01' E 120°38'3746.2
2016-Apr-26 23:33N 31°39' E 121°13'29528.2
2016-Apr-26 23:30N 31°59' E 120°49'1161858.6
2016-Apr-26 23:26N 30°30' E 122°15'92105.0
2016-Apr-26 22:34N 31°42' E 121°08'92328.8
2016-Apr-26 22:17N 30°30' E 122°15'1167568.8
2016-Apr-26 22:16N 31°59' E 120°49'2025.0
2016-Apr-26 21:28N 31°45' E 121°05'961726.3
2016-Apr-26 21:25N 30°30' E 122°15'1167573.4
2016-Apr-26 21:24N 31°59' E 120°49'116110.9
2016-Apr-26 20:22N 30°30' E 122°15'9498.5
2016-Apr-26 19:24N 31°44' E 121°07'94754.9
2016-Apr-26 19:17N 30°30' E 122°15'540534625.7
2016-Apr-26 19:08N 49°18' W 122°54'0 0.6
2016-Apr-26 18:31N 49°18' W 122°53'539830032.7
2016-Apr-26 18:20N 31°46' E 121°02'98561.1
2016-Apr-26 18:09N 30°30' E 122°15'54018491.3
2016-Apr-26 17:31N 49°18' W 122°59'540117856.2
2016-Apr-26 17:13N 30°30' E 122°15'54037749.1
2016-Apr-26 16:31N 49°17' W 122°57'5391497595.9
2016-Apr-26 16:31N 31°31' E 121°23'761303.8
2016-Apr-26 16:27N 30°30' E 122°15'0 0.0
2016-Apr-26 15:18N 30°30' E 122°15'701224.2
2016-Apr-26 15:15N 31°28' E 121°28'97622.5
2016-Apr-26 15:06N 29°54' E 121°59'1023537.7
2016-Apr-26 15:04N 31°31' E 121°22'916.5
2016-Apr-26 14:32N 31°26' E 121°30'6881431.7
2016-Apr-26 14:32N 30°30' E 122°15'1161359.5
2016-Apr-26 14:27N 31°59' E 120°49'139530.1
2016-Apr-26 14:12N 29°54' E 121°59'0 0.0
2016-Apr-26 13:18N 29°54' E 121°59'92457.5
2016-Apr-26 13:05N 31°22' E 121°30'65114.4
2016-Apr-26 12:31N 30°30' E 122°15'651023.8
2016-Apr-26 12:28N 31°22' E 121°30'51318.8
2016-Apr-26 12:18N 31°59' E 120°49'13914298.2
2016-Apr-26 12:18N 29°54' E 121°59'92122.3
2016-Apr-26 11:33N 31°22' E 121°30'65582.1
2016-Apr-26 11:26N 30°30' E 122°15'116499.7
2016-Apr-26 11:12N 31°59' E 120°49'1391293.1
2016-Apr-26 11:06N 29°54' E 121°59'92150.4
2016-Apr-26 10:29N 31°22' E 121°30'65506.5
2016-Apr-26 10:21N 30°30' E 122°15'123448.8
2016-Apr-26 10:05N 32°01' E 120°38'123207.3
2016-Apr-26 09:29N 30°30' E 122°15'116448.7
2016-Apr-26 09:14N 31°59' E 120°49'11664.3
2016-Apr-26 07:26N 30°30' E 122°15'39115.9
2016-Apr-26 07:05N 29°54' E 121°59'6151120.2
2016-Apr-26 06:33N 22°59' E 113°31'2 1.9
2016-Apr-26 05:34N 23°01' E 113°32'64919621.7
2016-Apr-26 05:32N 30°30' E 122°15'649562.5
2016-Apr-26 04:22N 23°01' E 113°32'6493944.3
2016-Apr-26 04:12N 30°30' E 122°15'2028.8
2016-Apr-26 03:30N 30°34' E 121°52'63642428.6
2016-Apr-26 03:29N 23°01' E 113°32'6495681.2
2016-Apr-26 03:22N 30°30' E 122°15'2019.8
2016-Apr-26 02:22N 30°43' E 121°57'20462.5
2016-Apr-26 02:19N 30°30' E 122°15'6496768.0
2016-Apr-26 02:14N 23°01' E 113°32'649967.7
2016-Apr-26 01:33N 30°30' E 122°15'64934337.6
2016-Apr-26 01:32N 23°01' E 113°32'0 0.0
2016-Apr-26 00:33N 23°01' E 113°32'6493543.3
2016-Apr-26 00:22N 30°30' E 122°15'648808.4
2016-Apr-25 23:33N 23°01' E 113°32'6149324.1
2016-Apr-25 23:30N 29°54' E 121°59'45726.4
2016-Apr-25 23:26N 30°37' E 122°13'652742.5
2016-Apr-25 22:33N 23°01' E 113°32'66110256.9
2016-Apr-25 22:29N 31°10' E 121°52'1211.6
2016-Apr-25 21:26N 31°19' E 121°42'910.0
2016-Apr-25 20:33N 31°23' E 121°33'77309.5
2016-Apr-25 20:18N 31°56' E 120°11'153748.8
2016-Apr-25 20:05N 29°54' E 121°59'92168.0
2016-Apr-25 19:33N 31°22' E 121°28'6562502.9
2016-Apr-25 19:17N 23°01' E 113°32'656881.4
2016-Apr-25 18:32N 31°22' E 121°28'321399.5
2016-Apr-25 18:31N 31°05' E 122°00'66340431.2
2016-Apr-25 18:30N 23°01' E 113°32'6141987.2
2016-Apr-25 18:12N 29°54' E 121°59'92144.2
2016-Apr-25 17:33N 31°22' E 121°28'656786757.5
2016-Apr-25 17:33N 23°01' E 113°32'6647812.2
2016-Apr-25 17:28N 32°01' E 120°48'5156.3
2016-Apr-25 16:33N 31°22' E 121°28'65678675.7
2016-Apr-25 16:33N 23°01' E 113°32'657112662.3
2016-Apr-25 16:33N 31°22' E 121°30'2 2.1
2016-Apr-25 15:33N 31°21' E 121°27'65581362.7
2016-Apr-25 15:33N 23°01' E 113°32'6576535.6
2016-Apr-25 15:27N 31°22' E 121°30'4 5.0
2016-Apr-25 14:33N 31°20' E 121°25'65383971.4
2016-Apr-25 14:33N 23°01' E 113°32'6573443.8
2016-Apr-25 14:21N 31°22' E 121°30'5 5.6
2016-Apr-25 13:33N 31°20' E 121°25'65358780.0
2016-Apr-25 13:32N 23°01' E 113°32'65712258.7
2016-Apr-25 13:29N 31°22' E 121°30'657711.1
2016-Apr-25 12:33N 23°01' E 113°32'65329027.4
2016-Apr-25 12:32N 31°20' E 121°25'580.2
2016-Apr-25 12:29N 31°22' E 121°30'5 4.9
2016-Apr-25 11:33N 31°20' E 121°25'65344362.3
2016-Apr-25 11:33N 23°01' E 113°32'66218470.0
2016-Apr-25 11:30N 31°17' E 121°44'84203.4
2016-Apr-25 11:05N 29°54' E 121°59'91169.3
2016-Apr-25 10:33N 31°22' E 121°36'661198236.3
2016-Apr-25 10:33N 23°01' E 113°32'653391866.7
2016-Apr-25 10:33N 31°20' E 121°25'911541.1
2016-Apr-25 10:30N 29°54' E 121°59'614624.2
2016-Apr-25 09:31N 23°01' E 113°32'65314163.9
2016-Apr-25 09:28N 31°20' E 121°25'91337.0
2016-Apr-25 09:12N 29°54' E 121°59'614910.1
2016-Apr-25 08:31N 23°01' E 113°32'65360287.2
2016-Apr-25 08:30N 31°20' E 121°25'0 0.0
2016-Apr-25 07:33N 31°20' E 121°25'65335092.8
2016-Apr-25 07:32N 23°01' E 113°32'0 0.0
2016-Apr-25 06:33N 23°01' E 113°32'6539293.3
2016-Apr-25 06:28N 31°20' E 121°25'57223.3
2016-Apr-25 06:13N 32°01' E 120°38'660973.7
2016-Apr-25 05:32N 23°01' E 113°32'6536935.7
2016-Apr-25 05:27N 31°20' E 121°25'653734.5
2016-Apr-25 04:33N 23°01' E 113°32'653597.1
2016-Apr-25 03:28N 31°20' E 121°25'0 0.0
2016-Apr-25 01:17N 31°20' E 121°25'0 0.0
2016-Apr-25 00:30N 31°20' E 121°25'0 0.0
2016-Apr-24 23:32N 31°20' E 121°25'0 0.0
2016-Apr-24 22:33N 31°20' E 121°25'91257.4
2016-Apr-24 22:12N 29°54' E 121°59'91138.7
2016-Apr-24 21:32N 31°20' E 121°25'912131.5
2016-Apr-24 21:30N 29°54' E 121°59'9197.5
2016-Apr-24 20:33N 31°20' E 121°25'0 0.0
2016-Apr-24 19:20N 31°20' E 121°25'91661.8
2016-Apr-24 19:11N 29°54' E 121°59'91141.3
2016-Apr-24 18:33N 31°20' E 121°25'911692.0
2016-Apr-24 18:30N 29°54' E 121°59'9196.0
2016-Apr-24 17:32N 31°21' E 121°27'6 5.1
2016-Apr-24 16:24N 31°24' E 121°33'9291.5
2016-Apr-24 15:24N 29°54' E 121°59'0 0.0
2016-Apr-24 13:12N 29°54' E 121°59'0 0.0
2016-Apr-24 11:20N 29°54' E 121°59'0 0.0
2016-Apr-24 08:33N 29°54' E 121°59'4746.7
2016-Apr-24 07:32N 30°39' E 122°14'47513.2
2016-Apr-24 07:27N 29°54' E 121°59'4145.3
2016-Apr-24 06:33N 30°33' E 122°14'41267.8
2016-Apr-24 06:24N 29°54' E 121°59'3920.8
2016-Apr-24 04:31N 30°30' E 122°15'0 0.1
2016-Apr-24 03:28N 30°31' E 122°15'0 0.0
2016-Apr-24 02:31N 30°31' E 122°15'3 3.0
2016-Apr-24 01:32N 30°33' E 122°14'6495716.3
2016-Apr-24 01:26N 23°02' E 113°31'61416996.1
2016-Apr-24 01:24N 29°54' E 121°59'114585.1
2016-Apr-24 01:12N 31°40' E 121°13'6601020.8
2016-Apr-24 00:33N 23°06' E 113°27'6556981.2
2016-Apr-24 00:27N 30°43' E 122°14'50190.2
2016-Apr-24 00:12N 29°54' E 121°59'614962.8
2016-Apr-23 23:33N 23°06' E 113°27'6604479.7
2016-Apr-23 23:24N 31°41' E 121°11'659761.4
2016-Apr-23 22:32N 23°06' E 113°27'0 0.1
2016-Apr-23 21:32N 23°06' E 113°27'  
Track history (hours):
 
Tides and Currents Weather Stations Pressure Air Temp Water Temp Dewpoint Dewpoint Depression Visibility Wind Speed Wind Dir Waves Ship Positions

Graceful Lady

Last reported at 2016-May-03 21:32 UTC. Time now 2016-May-03 22:00 UTC.
Position N 30°59' E 121°21'.

Length 6 m.

Type: Pollution control. MMSI: 316014038.

Date/timePositionNaut miles runAvg speedWind from/ knotsBaromVisibWave heightAir tempDewpointWater temp
2016-May-03 21:32N 30°59' E 121°21'46128.3
2016-May-03 21:11N 30°47' E 122°14'5485.5
2016-May-03 20:32N 29°54' E 121°59'732610.4
2016-May-03 20:31N 30°59' E 121°21'43114.5
2016-May-03 20:08N 30°56' E 122°12'4375.8
2016-May-03 19:33N 30°59' E 121°21'39179.3
2016-May-03 19:21N 31°01' E 122°06'68645.1
2016-May-03 19:14N 29°54' E 121°59'391575.6
2016-May-03 18:33N 24°25' E 118°01'45211974.8
2016-May-03 18:31N 31°06' E 121°58'32483.9
2016-May-03 18:27N 30°59' E 121°21'65198.5
2016-May-03 18:08N 31°58' E 120°50'477835.1
2016-May-03 17:33N 24°24' E 118°06'43167467.8
2016-May-03 17:33N 30°59' E 121°21'65632.9
2016-May-03 17:27N 31°58' E 120°50'64319.5
2016-May-03 17:15N 31°15' E 121°46'7 9.8
2016-May-03 16:33N 31°20' E 121°40'2731844.2
2016-May-03 16:33N 30°59' E 121°21'43242020.5
2016-May-03 16:33N 24°21' E 118°11'432437.3
2016-May-03 15:33N 30°59' E 121°21'2719189.8
2016-May-03 15:33N 31°24' E 121°31'935162.2
2016-May-03 15:32N 29°54' E 121°59'38733145.3
2016-May-03 15:32N 24°21' E 118°18'430443.6
2016-May-03 14:33N 30°59' E 121°21'0 0.0
2016-May-03 13:33N 30°59' E 121°21'498405.3
2016-May-03 13:33N 30°36' E 122°12'4949.1
2016-May-03 12:33N 30°59' E 121°21'734279.3
2016-May-03 12:32N 29°54' E 121°59'7373.9
2016-May-03 11:33N 30°59' E 121°21'54298.9
2016-May-03 11:22N 30°31' E 122°16'5466.6
2016-May-03 10:33N 30°59' E 121°21'40311425.8
2016-May-03 10:31N 24°39' E 118°48'403416.7
2016-May-03 09:33N 30°59' E 121°21'39821085.0
2016-May-03 09:32N 24°43' E 118°52'4056446.0
2016-May-03 09:28N 31°03' E 121°28'742040.4
2016-May-03 09:26N 29°54' E 121°59'39161.6
2016-May-03 09:12N 30°30' E 122°15'5484.5
2016-May-03 08:33N 30°59' E 121°21'4438.2
2016-May-03 08:33N 30°60' E 121°25'39629058.4
2016-May-03 08:32N 24°47' E 118°56'3923862.7
2016-May-03 08:26N 30°58' E 121°19'2 2.6
2016-May-03 07:34N 30°59' E 121°21'38938863.1
2016-May-03 07:33N 24°51' E 118°60'38718841.8
2016-May-03 07:32N 30°58' E 121°18'73383.5
2016-May-03 07:20N 29°54' E 121°59'7393.0
2016-May-03 06:33N 30°59' E 121°21'3834121.1
2016-May-03 06:28N 24°55' E 119°04'384422.1
2016-May-03 05:33N 30°59' E 121°21'3788560.8
2016-May-03 05:31N 24°60' E 119°08'378394.8
2016-May-03 04:33N 30°59' E 121°21'0 0.0
2016-May-03 03:33N 30°59' E 121°21'0 0.0
2016-May-03 02:33N 30°59' E 121°21'3602458.3
2016-May-03 02:24N 25°14' E 119°25'360423.2
2016-May-03 01:33N 30°59' E 121°21'2 7.8
2016-May-03 01:16N 30°58' E 121°19'2 3.2
2016-May-03 00:33N 30°59' E 121°21'0 0.0
2016-May-02 23:33N 30°59' E 121°21'73187.0
2016-May-02 23:10N 32°01' E 120°38'72668.7
2016-May-02 23:03N 30°58' E 121°19'0 0.0
2016-May-02 22:33N 30°58' E 121°19'22772.2
2016-May-02 22:33N 30°59' E 121°21'0 0.0
2016-May-02 21:33N 30°59' E 121°21'328655.8
2016-May-02 21:03N 25°44' E 119°39'328659.1
2016-May-02 20:33N 30°59' E 121°21'6381640.7
2016-May-02 20:10N 22°58' E 113°32'6381048.5
2016-May-02 19:34N 30°59' E 121°21'73130641.6
2016-May-02 19:33N 32°01' E 120°38'65921559.7
2016-May-02 19:32N 23°03' E 113°30'6136815.4
2016-May-02 19:26N 29°54' E 121°59'87451.8
2016-May-02 19:15N 31°20' E 121°41'2738.9
2016-May-02 18:33N 30°59' E 121°21'635190357.4
2016-May-02 18:33N 23°06' E 113°27'659237404.7
2016-May-02 18:33N 31°23' E 121°34'2626.6
2016-May-02 17:33N 30°59' E 121°21'0 0.0
2016-May-02 16:33N 30°59' E 121°21'2 5.3
2016-May-02 16:07N 30°58' E 121°19'0 0.4
2016-May-02 15:33N 30°58' E 121°19'2567.1
2016-May-02 15:33N 30°59' E 121°21'6354965.8
2016-May-02 15:25N 23°06' E 113°27'637735.0
2016-May-02 14:33N 30°60' E 121°24'6372292484.0
2016-May-02 14:33N 23°06' E 113°27'635253809.8
2016-May-02 14:33N 30°59' E 121°21'65543.6
2016-May-02 14:26N 31°58' E 120°50'6574.5
2016-May-02 13:34N 30°59' E 121°21'635571072.1
2016-May-02 13:33N 23°06' E 113°27'641577161.1
2016-May-02 13:33N 31°02' E 121°29'65135.1
2016-May-02 13:04N 31°58' E 120°50'60115.8
2016-May-02 12:34N 31°08' E 121°28'64547376.9
2016-May-02 12:33N 23°06' E 113°27'635642.6
2016-May-02 11:33N 30°59' E 121°21'635571874.6
2016-May-02 11:33N 23°05' E 113°26'65061608.2
2016-May-02 11:33N 31°12' E 121°30'1515.6
2016-May-02 10:33N 30°59' E 121°21'635762491.5
2016-May-02 10:33N 23°05' E 113°26'65443571.0
2016-May-02 10:32N 31°15' E 121°32'8421702.9
2016-May-02 10:32N 29°54' E 121°59'152622.0
2016-May-02 10:18N 31°57' E 120°14'77105.0
2016-May-02 09:33N 31°19' E 121°33'2316350.4
2016-May-02 09:33N 30°59' E 121°21'635254163.8
2016-May-02 09:33N 23°05' E 113°26'61544257.3
2016-May-02 09:32N 29°54' E 121°59'151670.1
2016-May-02 09:19N 31°58' E 120°18'27242.2
2016-May-02 09:12N 31°58' E 120°50'65101.7
2016-May-02 08:34N 30°59' E 121°21'246174.8
2016-May-02 08:33N 31°22' E 121°30'656118164.1
2016-May-02 08:33N 23°06' E 113°26'635639.6
2016-May-02 07:33N 30°59' E 121°21'272288.8
2016-May-02 07:33N 31°24' E 121°31'65918832.4
2016-May-02 07:31N 23°06' E 113°26'6148503.0
2016-May-02 07:26N 29°54' E 121°59'7282.4
2016-May-02 06:33N 30°59' E 121°21'3013399.4
2016-May-02 06:33N 31°28' E 121°26'65923046.5
2016-May-02 06:32N 23°02' E 113°31'659679.9
2016-May-02 05:33N 31°32' E 121°20'33119424.5
2016-May-02 05:33N 30°59' E 121°21'635152478.8
2016-May-02 05:33N 23°02' E 113°31'61439473.2
2016-May-02 05:32N 29°54' E 121°59'109111.2
2016-May-02 04:33N 31°37' E 121°16'3822941.4
2016-May-02 04:33N 30°59' E 121°21'651405.9
2016-May-02 04:30N 31°58' E 120°50'6635293.6
2016-May-02 04:23N 23°02' E 113°31'635771.1
2016-May-02 03:33N 30°59' E 121°21'63510737.9
2016-May-02 03:30N 23°02' E 113°31'661475598.2
2016-May-02 03:30N 31°41' E 121°10'48133.1
2016-May-02 03:08N 31°58' E 120°18'25318.6
2016-May-02 03:04N 32°01' E 120°47'69136.8
2016-May-02 02:34N 30°59' E 121°21'63531331.7
2016-May-02 02:32N 23°02' E 113°31'6399506.1
2016-May-02 02:28N 31°00' E 121°26'47500.4
2016-May-02 02:23N 31°44' E 121°05'1923.5
2016-May-02 01:33N 31°58' E 120°50'6521360.6
2016-May-02 01:33N 30°59' E 121°21'7102.3
2016-May-02 01:29N 31°03' E 121°29'64337322.0
2016-May-02 01:28N 23°01' E 113°31'66098994.9
2016-May-02 01:27N 31°44' E 121°04'47159.6
2016-May-02 01:09N 30°58' E 121°18'3 5.2
2016-May-02 00:33N 30°59' E 121°21'055.3
2016-May-02 00:33N 30°59' E 121°21'735438.2
2016-May-02 00:32N 29°54' E 121°59'1204181.4
2016-May-02 00:31N 31°44' E 121°04'660197989.8
2016-May-02 00:30N 23°01' E 113°31'636668.7
2016-May-01 23:33N 30°59' E 121°21'42967.7
2016-May-01 23:33N 31°00' E 121°26'6396749.7
2016-May-01 23:28N 23°01' E 113°31'66015133.2
2016-May-01 23:25N 31°44' E 121°04'227.1
2016-May-01 23:20N 31°46' E 121°04'5064.2
2016-May-01 22:33N 30°59' E 121°21'724924.0
2016-May-01 22:32N 29°54' E 121°59'61473711.3
2016-May-01 22:32N 23°01' E 113°31'643289218.4
2016-May-01 22:32N 31°03' E 121°29'2278884.0
2016-May-01 22:32N 31°23' E 121°37'314358.6
2016-May-01 22:31N 31°43' E 121°08'353.8
2016-May-01 22:28N 31°44' E 121°04'4752.7
2016-May-01 21:34N 30°59' E 121°21'277005.3
2016-May-01 21:33N 31°20' E 121°42'311611.3
2016-May-01 21:32N 31°39' E 121°13'66211394.3
2016-May-01 21:29N 23°01' E 113°31'636688.8
2016-May-01 20:33N 30°59' E 121°21'271196.2
2016-May-01 20:32N 31°16' E 121°46'313759.9
2016-May-01 20:31N 31°36' E 121°18'66117897.8
2016-May-01 20:29N 23°01' E 113°31'66026401.1
2016-May-01 20:28N 31°44' E 121°04'19228.1
2016-May-01 20:23N 31°58' E 120°50'6579.4
2016-May-01 19:33N 30°59' E 121°21'348660.1
2016-May-01 19:33N 31°33' E 121°21'6618200.1
2016-May-01 19:28N 23°01' E 113°31'6605023.4
2016-May-01 19:21N 31°44' E 121°04'1201138.9
2016-May-01 19:14N 29°54' E 121°59'100146.3
2016-May-01 18:33N 31°30' E 121°26'32113405.0
2016-May-01 18:33N 30°59' E 121°21'725018.7
2016-May-01 18:32N 29°54' E 121°59'61463181.1
2016-May-01 18:32N 23°01' E 113°31'66032549.3
2016-May-01 18:30N 31°44' E 121°04'660693.0
2016-May-01 17:33N 23°01' E 113°32'6352286894.9
2016-May-01 17:33N 30°59' E 121°21'296489.9
2016-May-01 17:33N 31°27' E 121°29'967227.5
2016-May-01 17:32N 29°54' E 121°59'120904.5
2016-May-01 17:24N 31°44' E 121°04'3136.0
2016-May-01 16:33N 31°23' E 121°30'255978.0
2016-May-01 16:33N 30°59' E 121°21'63514947.0
2016-May-01 16:31N 23°01' E 113°32'6604472.1
2016-May-01 16:22N 31°44' E 121°04'3644.4
2016-May-01 15:33N 31°18' E 121°33'229861.8
2016-May-01 15:33N 30°59' E 121°21'63512920.3
2016-May-01 15:30N 23°01' E 113°32'6631544.2
2016-May-01 15:05N 31°58' E 120°50'6631278.7
2016-May-01 14:33N 23°01' E 113°32'635285864.0
2016-May-01 14:33N 30°59' E 121°21'178958.7
2016-May-01 14:33N 31°15' E 121°30'865626.4
2016-May-01 14:32N 29°54' E 122°05'7576.2
2016-May-01 13:33N 30°59' E 121°21'635762303.6
2016-May-01 13:33N 23°01' E 113°32'6178881.2
2016-May-01 13:29N 29°50' E 122°07'7985.1
2016-May-01 12:34N 30°59' E 121°21'63543985.6
2016-May-01 12:33N 23°02' E 113°31'6445696.6
2016-May-01 12:26N 31°06' E 121°28'9 9.9
2016-May-01 11:33N 30°59' E 121°21'63542356.2
2016-May-01 11:32N 23°02' E 113°31'637649.6
2016-May-01 10:34N 30°59' E 121°24'2992.9
2016-May-01 10:33N 30°59' E 121°21'6355689.6
2016-May-01 10:27N 23°02' E 113°31'64744805.0
2016-May-01 10:26N 30°44' E 121°59'99508.5
2016-May-01 10:14N 32°01' E 120°47'69101.2
2016-May-01 09:33N 30°59' E 121°21'63534654.6
2016-May-01 09:32N 23°02' E 113°31'642121681.8
2016-May-01 09:32N 30°41' E 121°54'3434.2
2016-May-01 08:33N 30°59' E 121°21'63526908.5
2016-May-01 08:32N 23°02' E 113°31'6103896.6
2016-May-01 08:22N 29°46' E 122°01'8097.6
2016-May-01 07:33N 30°59' E 121°21'79990.4
2016-May-01 07:28N 29°50' E 122°06'159849.3
2016-May-01 07:17N 31°56' E 120°12'82112.8
2016-May-01 06:33N 30°59' E 121°21'6352287414.7
2016-May-01 06:33N 23°02' E 113°31'635634.3
2016-May-01 05:33N 30°59' E 121°21'63514950.5
2016-May-01 05:31N 23°02' E 113°31'635665.3
2016-May-01 04:33N 30°59' E 121°21'0 0.0
2016-May-01 03:33N 30°59' E 121°21'6352253.6
2016-May-01 03:17N 23°02' E 113°31'6298293.0
2016-May-01 03:12N 30°57' E 121°13'811.9
2016-May-01 02:33N 30°59' E 121°21'4173.3
2016-May-01 02:32N 30°58' E 121°17'6321670.4
2016-May-01 02:09N 23°02' E 113°31'6351067.9
2016-May-01 01:34N 30°59' E 121°21'121.6
2016-May-01 01:30N 30°59' E 121°23'1 1.5
2016-May-01 00:33N 30°59' E 121°21'796.4
2016-May-01 00:29N 31°02' E 121°29'852901.2
2016-May-01 00:27N 29°41' E 122°02'1504711.1
2016-May-01 00:25N 31°58' E 120°50'6575.3
2016-Apr-30 23:33N 30°59' E 121°21'8196757.5
2016-Apr-30 23:33N 29°47' E 122°04'61341664.7
2016-Apr-30 23:32N 23°02' E 113°31'66314127.6
2016-Apr-30 23:29N 31°58' E 120°50'6569.8
2016-Apr-30 22:33N 30°59' E 121°21'7721344.7
2016-Apr-30 22:33N 29°53' E 122°09'62072013.5
2016-Apr-30 22:33N 23°02' E 113°31'6514883.4
2016-Apr-30 22:25N 31°13' E 121°30'651761.3
2016-Apr-30 21:33N 23°02' E 113°31'638765243.0
2016-Apr-30 21:33N 30°60' E 121°25'70981.1
2016-Apr-30 21:29N 29°58' E 122°03'8894.8
2016-Apr-30 20:33N 31°21' E 121°30'226190.2
2016-Apr-30 20:33N 30°60' E 121°25'63862046.7
2016-Apr-30 20:33N 23°02' E 113°31'638646.7
2016-Apr-30 19:33N 30°60' E 121°25'6381378.0
2016-Apr-30 19:06N 23°02' E 113°31'6381184.6
2016-Apr-30 18:33N 30°60' E 121°25'6382295668.2
2016-Apr-30 18:33N 23°02' E 113°31'0 0.0
2016-Apr-30 17:33N 23°02' E 113°31'638114784.2
2016-Apr-30 17:33N 30°60' E 121°25'638643.1
2016-Apr-30 16:33N 23°02' E 113°31'6381147906.1
2016-Apr-30 16:33N 30°60' E 121°25'0 0.0
2016-Apr-30 15:34N 30°60' E 121°25'638120825.5
2016-Apr-30 15:33N 23°02' E 113°31'638640.4
2016-Apr-30 14:33N 30°60' E 121°25'72841.0
2016-Apr-30 14:28N 29°54' E 121°59'7277.5
2016-Apr-30 13:33N 30°60' E 121°25'2677.4
2016-Apr-30 13:13N 31°22' E 121°38'66252988.8
2016-Apr-30 13:12N 23°02' E 113°31'638986.1
2016-Apr-30 12:33N 30°60' E 121°25'638208789.3
2016-Apr-30 12:33N 23°02' E 113°31'6141618.4
2016-Apr-30 12:10N 29°54' E 121°59'72113.3
2016-Apr-30 11:32N 31°01' E 121°29'64260801.1
2016-Apr-30 11:31N 23°02' E 113°31'0 0.0
2016-Apr-30 10:33N 23°02' E 113°31'6602810.7
2016-Apr-30 10:19N 32°01' E 120°38'685455.8
2016-Apr-30 10:18N 31°08' E 121°28'646854.7
2016-Apr-30 09:33N 23°02' E 113°31'6378245.2
2016-Apr-30 09:28N 30°35' E 121°51'7 7.4
2016-Apr-30 08:33N 30°41' E 121°55'643210443.0
2016-Apr-30 08:33N 23°02' E 113°31'65211115.8
2016-Apr-30 08:30N 31°15' E 121°29'652684.2
2016-Apr-30 07:33N 23°02' E 113°31'6569077.6
2016-Apr-30 07:28N 31°17' E 121°34'656678.6
2016-Apr-30 06:30N 23°02' E 113°31'65820066.5
2016-Apr-30 06:28N 31°20' E 121°33'3 3.0
2016-Apr-30 05:31N 31°21' E 121°30'65723421.7
2016-Apr-30 05:29N 23°02' E 113°31'659706.0
2016-Apr-30 04:33N 31°24' E 121°31'65960822.1
2016-Apr-30 04:32N 23°02' E 113°31'6622887.3
2016-Apr-30 04:19N 31°21' E 121°38'1112.6
2016-Apr-30 03:28N 31°27' E 121°28'63324.2
2016-Apr-30 03:16N 30°37' E 122°13'63373.4
2016-Apr-30 03:06N 31°27' E 121°28'6601206.5
2016-Apr-30 02:33N 23°02' E 113°31'659237348.4
2016-Apr-30 02:33N 31°30' E 121°23'166413.8
2016-Apr-30 02:33N 31°21' E 121°39'161534.4
2016-Apr-30 02:32N 31°30' E 121°23'724152.9
2016-Apr-30 02:31N 30°33' E 122°14'649669.0
2016-Apr-30 01:33N 23°01' E 113°31'659296715.5
2016-Apr-30 01:33N 31°31' E 121°23'71322.8
2016-Apr-30 01:33N 31°36' E 121°17'660664.2
2016-Apr-30 00:33N 23°01' E 113°31'659593439.3
2016-Apr-30 00:33N 31°31' E 121°23'75592.0
2016-Apr-30 00:25N 30°31' E 122°16'649744.5
2016-Apr-29 23:33N 23°02' E 113°31'6602374991.0
2016-Apr-29 23:33N 31°31' E 121°23'0 0.1
2016-Apr-29 22:32N 31°31' E 121°22'66015321.6
2016-Apr-29 22:29N 23°02' E 113°31'660710.8
2016-Apr-29 21:33N 31°31' E 121°22'757988.5
2016-Apr-29 21:33N 30°31' E 122°15'6492709.5
2016-Apr-29 21:19N 23°02' E 113°31'660878.3
2016-Apr-29 20:33N 31°31' E 121°22'66013493.2
2016-Apr-29 20:31N 23°02' E 113°31'6491809.1
2016-Apr-29 20:09N 30°31' E 122°15'75125.8
2016-Apr-29 19:33N 31°31' E 121°22'7512336.8
2016-Apr-29 19:33N 30°31' E 122°15'64980535.6
2016-Apr-29 19:32N 23°02' E 113°31'660668.2
2016-Apr-29 18:33N 31°31' E 121°23'75882.5
2016-Apr-29 18:28N 30°31' E 122°15'649233534.9
2016-Apr-29 18:28N 23°02' E 113°31'660730.9
2016-Apr-29 17:34N 31°31' E 121°23'66021395.3
2016-Apr-29 17:32N 23°02' E 113°31'660678.1
2016-Apr-29 16:33N 31°31' E 121°23'66040945.9
2016-Apr-29 16:32N 23°02' E 113°31'660672.4
2016-Apr-29 15:33N 31°31' E 121°23'66020832.4
2016-Apr-29 15:32N 23°02' E 113°31'6494845.3
2016-Apr-29 15:24N 30°31' E 122°15'114136.5
2016-Apr-29 14:33N 31°58' E 120°50'394138.4
2016-Apr-29 14:33N 31°31' E 121°23'751807.5
2016-Apr-29 14:30N 30°30' E 122°15'64922896.7
2016-Apr-29 14:29N 23°02' E 113°31'649699.7
2016-Apr-29 13:33N 30°30' E 122°15'7519374.9
2016-Apr-29 13:33N 31°31' E 121°23'66016046.6
2016-Apr-29 13:30N 23°02' E 113°31'660694.6
2016-Apr-29 12:33N 31°31' E 121°23'660124994.6
2016-Apr-29 12:33N 23°02' E 113°31'660663.0
2016-Apr-29 11:33N 31°31' E 121°23'66021205.2
2016-Apr-29 11:31N 23°02' E 113°31'6631579.1
2016-Apr-29 11:06N 31°58' E 120°50'3971.1
2016-Apr-29 10:33N 31°31' E 121°22'737262.9
2016-Apr-29 10:33N 30°33' E 122°14'65010629.3
2016-Apr-29 10:29N 23°02' E 113°31'61450241.5
2016-Apr-29 10:28N 29°54' E 121°59'138579.7
2016-Apr-29 10:14N 31°58' E 120°50'663970.1
2016-Apr-29 09:33N 23°02' E 113°31'66057920.7
2016-Apr-29 09:32N 31°31' E 121°22'65204.3
2016-Apr-29 09:13N 30°42' E 122°14'6598.2
2016-Apr-29 08:33N 31°31' E 121°22'66037105.2
2016-Apr-29 08:32N 23°02' E 113°31'660673.3
2016-Apr-29 07:33N 31°31' E 121°23'660182665.9
2016-Apr-29 07:33N 23°02' E 113°31'0 0.0
2016-Apr-29 06:34N 23°02' E 113°31'660118739.8
2016-Apr-29 06:33N 31°31' E 121°23'0 0.0
2016-Apr-29 05:33N 31°31' E 121°23'66016155.1
2016-Apr-29 05:31N 23°02' E 113°31'660687.5
2016-Apr-29 04:33N 31°31' E 121°23'6605835.0
2016-Apr-29 04:27N 23°02' E 113°31'660741.0
2016-Apr-29 03:33N 31°31' E 121°23'0 0.0
2016-Apr-29 02:33N 31°31' E 121°23'6602513.1
2016-Apr-29 02:17N 23°02' E 113°31'660892.1
2016-Apr-29 01:33N 31°31' E 121°23'66014843.1
2016-Apr-29 01:30N 23°02' E 113°31'660695.4
2016-Apr-29 00:33N 31°31' E 121°23'66034418.8
2016-Apr-29 00:32N 23°02' E 113°31'6641640.5
2016-Apr-29 00:08N 31°58' E 120°51'3866.3
2016-Apr-28 23:34N 31°31' E 121°23'66021395.5
2016-Apr-28 23:32N 23°02' E 113°31'0 0.0
2016-Apr-28 22:33N 23°02' E 113°31'660131949.5
2016-Apr-28 22:33N 31°31' E 121°23'660660.3
2016-Apr-28 21:33N 23°02' E 113°31'660658.0
2016-Apr-28 20:33N 31°31' E 121°22'66015832.2
2016-Apr-28 20:30N 23°02' E 113°31'660694.2
2016-Apr-28 19:33N 31°31' E 121°22'6605654.4
2016-Apr-28 19:26N 23°02' E 113°31'660748.0
2016-Apr-28 18:34N 31°31' E 121°22'107317.2
2016-Apr-28 18:33N 31°23' E 121°31'659338846.5
2016-Apr-28 18:33N 23°02' E 113°31'662663.6
2016-Apr-28 17:33N 31°21' E 121°40'184509.9
2016-Apr-28 17:33N 31°31' E 121°23'66074213.9
2016-Apr-28 17:33N 23°02' E 113°31'0 0.0
2016-Apr-28 16:33N 23°02' E 113°31'66059372.4
2016-Apr-28 16:33N 31°31' E 121°23'0 0.0
2016-Apr-28 15:33N 31°31' E 121°23'66012116.9
2016-Apr-28 15:30N 23°02' E 113°31'660693.2
2016-Apr-28 14:33N 31°31' E 121°23'66020832.3
2016-Apr-28 14:31N 23°02' E 113°31'660682.8
2016-Apr-28 13:33N 31°31' E 121°23'6609064.5
2016-Apr-28 13:29N 23°02' E 113°31'660707.7
2016-Apr-28 12:33N 31°31' E 121°23'6603818.2
2016-Apr-28 12:22N 23°02' E 113°31'660806.4
2016-Apr-28 11:33N 31°31' E 121°23'660169637.9
2016-Apr-28 11:33N 23°02' E 113°31'660654.6
2016-Apr-28 10:33N 31°31' E 121°23'66020126.2
2016-Apr-28 10:31N 23°02' E 113°31'660692.9
2016-Apr-28 09:33N 31°31' E 121°22'66013119.9
2016-Apr-28 09:30N 23°02' E 113°31'6103921.8
2016-Apr-28 09:21N 29°57' E 121°50'97121.3
2016-Apr-28 08:33N 31°31' E 121°22'6607421.3
2016-Apr-28 08:28N 23°02' E 113°31'660725.6
2016-Apr-28 07:33N 31°31' E 121°22'66027939.2
2016-Apr-28 07:32N 23°02' E 113°31'6452136.7
2016-Apr-28 07:14N 31°10' E 121°24'12411.1
2016-Apr-28 07:12N 31°22' E 121°28'6561018.5
2016-Apr-28 06:33N 23°02' E 113°31'66064177.1
2016-Apr-28 06:33N 31°31' E 121°22'971047.6
2016-Apr-28 06:27N 29°57' E 121°50'97108.1
2016-Apr-28 05:33N 31°31' E 121°23'66037106.2
2016-Apr-28 05:32N 23°02' E 113°31'6562709.7
2016-Apr-28 05:18N 31°22' E 121°28'1013.8
2016-Apr-28 04:34N 31°31' E 121°23'66071963.5
2016-Apr-28 04:33N 23°02' E 113°31'660665.0
2016-Apr-28 03:33N 31°31' E 121°23'26178.0
2016-Apr-28 03:25N 31°05' E 121°28'6441947.3
2016-Apr-28 03:05N 23°01' E 113°32'65719876.6
2016-Apr-28 03:03N 31°21' E 121°31'2142.5
2016-Apr-28 02:33N 31°01' E 121°27'302335.6
2016-Apr-28 02:33N 31°31' E 121°23'0 0.0
2016-Apr-28 01:33N 31°31' E 121°23'323300.2
2016-Apr-28 01:32N 30°59' E 121°19'6342404.2
2016-Apr-28 01:17N 23°01' E 113°32'0 0.0
2016-Apr-28 00:33N 23°01' E 113°32'659131891.5
2016-Apr-28 00:33N 31°31' E 121°23'0 0.0
2016-Apr-27 23:33N 31°31' E 121°23'0 0.0
2016-Apr-27 22:32N 31°31' E 121°23'6605473.5
2016-Apr-27 22:25N 23°01' E 113°31'660765.1
2016-Apr-27 21:33N 31°31' E 121°23'53942427459.2
2016-Apr-27 21:33N 49°18' W 122°54'6191318415.3
2016-Apr-27 21:32N 23°01' E 113°31'660669.3
2016-Apr-27 20:33N 31°31' E 121°22'66022408.7
2016-Apr-27 20:31N 23°01' E 113°31'0 0.0
2016-Apr-27 19:33N 23°01' E 113°31'66087974.2
2016-Apr-27 19:33N 31°31' E 121°22'1138.5
2016-Apr-27 19:16N 31°24' E 121°32'1114.9
2016-Apr-27 18:33N 31°31' E 121°22'66024487.5
2016-Apr-27 18:32N 23°01' E 113°31'66291686.3
2016-Apr-27 18:31N 31°22' E 121°38'1616.8
2016-Apr-27 17:33N 31°31' E 121°22'386173776.1
2016-Apr-27 17:33N 37°56' E 120°43'96920044.9
2016-Apr-27 17:30N 23°01' E 113°31'660693.3
2016-Apr-27 16:33N 31°31' E 121°23'66041672.6
2016-Apr-27 16:32N 23°01' E 113°31'951921498.8
2016-Apr-27 16:06N 41°13' W 072°34'938917253.7
2016-Apr-27 15:33N 31°31' E 121°23'66037703.8
2016-Apr-27 15:32N 23°01' E 113°31'6142544.3
2016-Apr-27 15:18N 29°54' E 121°59'102138.6
2016-Apr-27 14:34N 31°31' E 121°23'66018413.6
2016-Apr-27 14:31N 23°01' E 113°31'660682.2
2016-Apr-27 13:33N 31°31' E 121°23'66040954.4
2016-Apr-27 13:32N 23°01' E 113°31'660669.7
2016-Apr-27 12:33N 31°31' E 121°23'66028616.1
2016-Apr-27 12:32N 23°01' E 113°32'660675.1
2016-Apr-27 11:33N 31°31' E 121°23'0 0.0
2016-Apr-27 10:33N 31°31' E 121°23'0 0.0
2016-Apr-27 09:33N 31°31' E 121°23'0 0.1
2016-Apr-27 08:33N 31°31' E 121°22'40506.0
2016-Apr-27 08:28N 31°59' E 120°49'4043.3
2016-Apr-27 07:32N 31°31' E 121°22'74919.7
2016-Apr-27 07:27N 30°32' E 122°14'7482.2
2016-Apr-27 06:33N 31°31' E 121°22'75470.2
2016-Apr-27 06:24N 30°31' E 122°16'7589.4
2016-Apr-27 05:33N 31°31' E 121°23'757342.3
2016-Apr-27 05:33N 30°30' E 122°15'1165015.3
2016-Apr-27 05:31N 31°59' E 120°49'4041.8
2016-Apr-27 04:33N 31°31' E 121°23'752120.7
2016-Apr-27 04:31N 30°30' E 122°15'7578.2
2016-Apr-27 03:33N 31°31' E 121°23'751085.4
2016-Apr-27 03:29N 30°30' E 122°15'123293.7
2016-Apr-27 03:04N 32°01' E 120°38'91096.0
2016-Apr-27 03:04N 31°59' E 120°49'4080.7
2016-Apr-27 02:34N 31°31' E 121°23'751728.4
2016-Apr-27 02:31N 30°30' E 122°15'7679.5
2016-Apr-27 01:33N 31°31' E 121°21'761333.6
2016-Apr-27 01:30N 30°30' E 122°15'8184.8
2016-Apr-27 00:32N 31°35' E 121°18'813759.2
2016-Apr-27 00:31N 30°30' E 122°15'123763.9
2016-Apr-27 00:21N 32°01' E 120°38'3746.2
2016-Apr-26 23:33N 31°39' E 121°13'29528.2
2016-Apr-26 23:30N 31°59' E 120°49'1161858.6
2016-Apr-26 23:26N 30°30' E 122°15'92105.0
2016-Apr-26 22:34N 31°42' E 121°08'92328.8
2016-Apr-26 22:17N 30°30' E 122°15'1167568.8
2016-Apr-26 22:16N 31°59' E 120°49'2025.0
2016-Apr-26 21:28N 31°45' E 121°05'961726.3
2016-Apr-26 21:25N 30°30' E 122°15'1167573.4
2016-Apr-26 21:24N 31°59' E 120°49'116110.9
2016-Apr-26 20:22N 30°30' E 122°15'9498.5
2016-Apr-26 19:24N 31°44' E 121°07'94754.9
2016-Apr-26 19:17N 30°30' E 122°15'540534625.7
2016-Apr-26 19:08N 49°18' W 122°54'0 0.6
2016-Apr-26 18:31N 49°18' W 122°53'539830032.7
2016-Apr-26 18:20N 31°46' E 121°02'98561.1
2016-Apr-26 18:09N 30°30' E 122°15'54018491.3
2016-Apr-26 17:31N 49°18' W 122°59'540117856.2
2016-Apr-26 17:13N 30°30' E 122°15'54037749.1
2016-Apr-26 16:31N 49°17' W 122°57'5391497595.9
2016-Apr-26 16:31N 31°31' E 121°23'761303.8
2016-Apr-26 16:27N 30°30' E 122°15'0 0.0
2016-Apr-26 15:18N 30°30' E 122°15'701224.2
2016-Apr-26 15:15N 31°28' E 121°28'97622.5
2016-Apr-26 15:06N 29°54' E 121°59'1023537.7
2016-Apr-26 15:04N 31°31' E 121°22'916.5
2016-Apr-26 14:32N 31°26' E 121°30'6881431.7
2016-Apr-26 14:32N 30°30' E 122°15'1161359.5
2016-Apr-26 14:27N 31°59' E 120°49'139530.1
2016-Apr-26 14:12N 29°54' E 121°59'0 0.0
2016-Apr-26 13:18N 29°54' E 121°59'92457.5
2016-Apr-26 13:05N 31°22' E 121°30'65114.4
2016-Apr-26 12:31N 30°30' E 122°15'651023.8
2016-Apr-26 12:28N 31°22' E 121°30'51318.8
2016-Apr-26 12:18N 31°59' E 120°49'13914298.2
2016-Apr-26 12:18N 29°54' E 121°59'92122.3
2016-Apr-26 11:33N 31°22' E 121°30'65582.1
2016-Apr-26 11:26N 30°30' E 122°15'116499.7
2016-Apr-26 11:12N 31°59' E 120°49'1391293.1
2016-Apr-26 11:06N 29°54' E 121°59'92150.4
2016-Apr-26 10:29N 31°22' E 121°30'65506.5
2016-Apr-26 10:21N 30°30' E 122°15'123448.8
2016-Apr-26 10:05N 32°01' E 120°38'123207.3
2016-Apr-26 09:29N 30°30' E 122°15'116448.7
2016-Apr-26 09:14N 31°59' E 120°49'11664.3
2016-Apr-26 07:26N 30°30' E 122°15'39115.9
2016-Apr-26 07:05N 29°54' E 121°59'6151120.2
2016-Apr-26 06:33N 22°59' E 113°31'2 1.9
2016-Apr-26 05:34N 23°01' E 113°32'64919621.7
2016-Apr-26 05:32N 30°30' E 122°15'649562.5
2016-Apr-26 04:22N 23°01' E 113°32'6493944.3
2016-Apr-26 04:12N 30°30' E 122°15'2028.8
2016-Apr-26 03:30N 30°34' E 121°52'63642428.6
2016-Apr-26 03:29N 23°01' E 113°32'6495681.2
2016-Apr-26 03:22N 30°30' E 122°15'2019.8
2016-Apr-26 02:22N 30°43' E 121°57'20462.5
2016-Apr-26 02:19N 30°30' E 122°15'6496768.0
2016-Apr-26 02:14N 23°01' E 113°32'649967.7
2016-Apr-26 01:33N 30°30' E 122°15'64934337.6
2016-Apr-26 01:32N 23°01' E 113°32'0 0.0
2016-Apr-26 00:33N 23°01' E 113°32'6493543.3
2016-Apr-26 00:22N 30°30' E 122°15'648808.4
2016-Apr-25 23:33N 23°01' E 113°32'6149324.1
2016-Apr-25 23:30N 29°54' E 121°59'45726.4
2016-Apr-25 23:26N 30°37' E 122°13'652742.5
2016-Apr-25 22:33N 23°01' E 113°32'66110256.9
2016-Apr-25 22:29N 31°10' E 121°52'1211.6
2016-Apr-25 21:26N 31°19' E 121°42'910.0
2016-Apr-25 20:33N 31°23' E 121°33'77309.5
2016-Apr-25 20:18N 31°56' E 120°11'153748.8
2016-Apr-25 20:05N 29°54' E 121°59'92168.0
2016-Apr-25 19:33N 31°22' E 121°28'6562502.9
2016-Apr-25 19:17N 23°01' E 113°32'656881.4
2016-Apr-25 18:32N 31°22' E 121°28'321399.5
2016-Apr-25 18:31N 31°05' E 122°00'66340431.2
2016-Apr-25 18:30N 23°01' E 113°32'6141987.2
2016-Apr-25 18:12N 29°54' E 121°59'92144.2
2016-Apr-25 17:33N 31°22' E 121°28'656786757.5
2016-Apr-25 17:33N 23°01' E 113°32'6647812.2
2016-Apr-25 17:28N 32°01' E 120°48'5156.3
2016-Apr-25 16:33N 31°22' E 121°28'65678675.7
2016-Apr-25 16:33N 23°01' E 113°32'657112662.3
2016-Apr-25 16:33N 31°22' E 121°30'2 2.1
2016-Apr-25 15:33N 31°21' E 121°27'65581362.7
2016-Apr-25 15:33N 23°01' E 113°32'6576535.6
2016-Apr-25 15:27N 31°22' E 121°30'4 5.0
2016-Apr-25 14:33N 31°20' E 121°25'65383971.4
2016-Apr-25 14:33N 23°01' E 113°32'6573443.8
2016-Apr-25 14:21N 31°22' E 121°30'5 5.6
2016-Apr-25 13:33N 31°20' E 121°25'65358780.0
2016-Apr-25 13:32N 23°01' E 113°32'65712258.7
2016-Apr-25 13:29N 31°22' E 121°30'657711.1
2016-Apr-25 12:33N 23°01' E 113°32'65329027.4
2016-Apr-25 12:32N 31°20' E 121°25'580.2
2016-Apr-25 12:29N 31°22' E 121°30'5 4.9
2016-Apr-25 11:33N 31°20' E 121°25'65344362.3
2016-Apr-25 11:33N 23°01' E 113°32'66218470.0
2016-Apr-25 11:30N 31°17' E 121°44'84203.4
2016-Apr-25 11:05N 29°54' E 121°59'91169.3
2016-Apr-25 10:33N 31°22' E 121°36'661198236.3
2016-Apr-25 10:33N 23°01' E 113°32'653391866.7
2016-Apr-25 10:33N 31°20' E 121°25'911541.1
2016-Apr-25 10:30N 29°54' E 121°59'614624.2
2016-Apr-25 09:31N 23°01' E 113°32'65314163.9
2016-Apr-25 09:28N 31°20' E 121°25'91337.0
2016-Apr-25 09:12N 29°54' E 121°59'614910.1
2016-Apr-25 08:31N 23°01' E 113°32'65360287.2
2016-Apr-25 08:30N 31°20' E 121°25'0 0.0
2016-Apr-25 07:33N 31°20' E 121°25'65335092.8
2016-Apr-25 07:32N 23°01' E 113°32'0 0.0
2016-Apr-25 06:33N 23°01' E 113°32'6539293.3
2016-Apr-25 06:28N 31°20' E 121°25'57223.3
2016-Apr-25 06:13N 32°01' E 120°38'660973.7
2016-Apr-25 05:32N 23°01' E 113°32'6536935.7
2016-Apr-25 05:27N 31°20' E 121°25'653734.5
2016-Apr-25 04:33N 23°01' E 113°32'653597.1
2016-Apr-25 03:28N 31°20' E 121°25'0 0.0
2016-Apr-25 01:17N 31°20' E 121°25'0 0.0
2016-Apr-25 00:30N 31°20' E 121°25'0 0.0
2016-Apr-24 23:32N 31°20' E 121°25'0 0.0
2016-Apr-24 22:33N 31°20' E 121°25'91257.4
2016-Apr-24 22:12N 29°54' E 121°59'91138.7
2016-Apr-24 21:32N 31°20' E 121°25'912131.5
2016-Apr-24 21:30N 29°54' E 121°59'9197.5
2016-Apr-24 20:33N 31°20' E 121°25'0 0.0
2016-Apr-24 19:20N 31°20' E 121°25'91661.8
2016-Apr-24 19:11N 29°54' E 121°59'91141.3
2016-Apr-24 18:33N 31°20' E 121°25'911692.0
2016-Apr-24 18:30N 29°54' E 121°59'9196.0
2016-Apr-24 17:32N 31°21' E 121°27'6 5.1
2016-Apr-24 16:24N 31°24' E 121°33'9291.5
2016-Apr-24 15:24N 29°54' E 121°59'0 0.0
2016-Apr-24 13:12N 29°54' E 121°59'0 0.0
2016-Apr-24 11:20N 29°54' E 121°59'0 0.0
2016-Apr-24 08:33N 29°54' E 121°59'4746.7
2016-Apr-24 07:32N 30°39' E 122°14'47513.2
2016-Apr-24 07:27N 29°54' E 121°59'4145.3
2016-Apr-24 06:33N 30°33' E 122°14'41267.8
2016-Apr-24 06:24N 29°54' E 121°59'3920.8
2016-Apr-24 04:31N 30°30' E 122°15'0 0.1
2016-Apr-24 03:28N 30°31' E 122°15'0 0.0
2016-Apr-24 02:31N 30°31' E 122°15'3 3.0
2016-Apr-24 01:32N 30°33' E 122°14'6495716.3
2016-Apr-24 01:26N 23°02' E 113°31'61416996.1
2016-Apr-24 01:24N 29°54' E 121°59'114585.1
2016-Apr-24 01:12N 31°40' E 121°13'6601020.8
2016-Apr-24 00:33N 23°06' E 113°27'6556981.2
2016-Apr-24 00:27N 30°43' E 122°14'50190.2
2016-Apr-24 00:12N 29°54' E 121°59'614962.8
2016-Apr-23 23:33N 23°06' E 113°27'6604479.7
2016-Apr-23 23:24N 31°41' E 121°11'659761.4
2016-Apr-23 22:32N 23°06' E 113°27'0 0.1
2016-Apr-23 21:32N 23°06' E 113°27'  

Dump ship's entire track history